Terminal Aerodrome Forecast
Issued by NWS Tuscon, AZ

Home | Current Version | Previous Version | Text Only | Print | Product List | Glossary On
Versions: 1 2 3 4 5 6 7 8 9
549
FTUS45 KTWC 242330
TAFTUS
TAF
KTUS 242330Z 2500/2524 25015G24KT P6SM BKN250
     FM250600 21009KT P6SM FEW120 BKN250
     FM251600 24014G22KT P6SM SCT100 BKN200
     FM252000 28019G28KT P6SM BKN250=

USA.gov is the U.S. government's official web portal to all federal, state and local government web resources and services.